PWSweather.com
Personal Weather Stations
Station Observations
WISCHPK61
Green Bay Schmitt Park, Green Bay, WI 54311

Green Bay Schmitt ParkGreen Bay, WI 54311

Lat: 44.514277, Lon: -87.935067

Elevation: 735

Station Type: Acu Rite Pro Weather Center model 02032C

http://greenbayweathercam.com

High Low Average
Temperature 79.4°F26.3°C 60.4°F15.8°C 69.6°F20.9°C
Dew Point 79.1°F26.2°C 60.1°F15.6°C 69.3°F20.7°C
Winds 1.2 mph 1.9 kmh Calm Calm Calm SCalm S
Wind Gusts 2.3 mph3.7 kmh -- --
Humidity 99% 99% 99%
Pressure 29.39 in995.3 mb 29.34 in993.6 mb -
Precipitation 0.00 in0.0 mm - -
Hour Temp Dew Point Humidity Winds Wind Gusts Pressure Precip Precip Rate Daily Precip Total
12:00 AM 64.9°F18.3°C 64.6°F18.1°C 99% Calm Calm -- 29.38 in994.9 mb - 0.00 in0.0 mm 0.00 in0.0 mm
01:00 AM 64.8°F18.2°C 64.5°F18.1°C 99% Calm Calm -- 29.38 in994.9 mb - 0.00 in0.0 mm 0.00 in0.0 mm
02:00 AM 63.5°F17.5°C 63.2°F17.3°C 99% Calm Calm -- 29.38 in994.9 mb - 0.00 in0.0 mm 0.00 in0.0 mm
03:00 AM 62.8°F17.1°C 62.5°F16.9°C 99% Calm Calm -- 29.37 in994.6 mb - 0.00 in0.0 mm 0.00 in0.0 mm
04:00 AM 61.9°F16.6°C 61.6°F16.4°C 99% Calm Calm -- 29.37 in994.6 mb - 0.00 in0.0 mm 0.00 in0.0 mm
05:00 AM 60.8°F16.0°C 60.5°F15.8°C 99% Calm Calm -- 29.37 in994.6 mb - 0.00 in0.0 mm 0.00 in0.0 mm
06:00 AM 60.4°F15.8°C 60.1°F15.6°C 99% Calm Calm -- 29.38 in994.9 mb - 0.00 in0.0 mm 0.00 in0.0 mm
07:00 AM 61.2°F16.2°C 60.9°F16.1°C 99% Calm Calm -- 29.38 in994.9 mb - 0.00 in0.0 mm 0.00 in0.0 mm
08:00 AM 64.7°F18.2°C 64.4°F18.0°C 99% Calm Calm -- 29.38 in994.9 mb - 0.00 in0.0 mm 0.00 in0.0 mm
09:00 AM 68.2°F20.1°C 67.9°F19.9°C 99% Calm Calm -- 29.38 in994.9 mb - 0.00 in0.0 mm 0.00 in0.0 mm
10:00 AM 72.5°F22.5°C 72.2°F22.3°C 99% Calm Calm -- 29.38 in994.9 mb - 0.00 in0.0 mm 0.00 in0.0 mm
11:00 AM 74.5°F23.6°C 74.2°F23.4°C 99% Calm Calm -- 29.38 in994.9 mb - 0.00 in0.0 mm 0.00 in0.0 mm
12:00 PM 76.6°F24.8°C 76.3°F24.6°C 99% Calm Calm -- 29.39 in995.3 mb - 0.00 in0.0 mm 0.00 in0.0 mm
01:00 PM 79.0°F26.1°C 78.7°F25.9°C 99% Calm Calm -- 29.38 in994.9 mb - 0.00 in0.0 mm 0.00 in0.0 mm
02:00 PM 72.5°F22.5°C 72.2°F22.3°C 99% Calm Calm -- 29.38 in994.9 mb - 0.00 in0.0 mm 0.00 in0.0 mm
03:00 PM 74.4°F23.6°C 74.1°F23.4°C 99% Calm Calm -- 29.36 in994.2 mb - 0.00 in0.0 mm 0.00 in0.0 mm
04:00 PM 79.2°F26.2°C 78.9°F26.1°C 99% 1.2 mph SSE1.9 kmh SSE 2.3 mph3.7 kmh 29.37 in994.6 mb - 0.00 in0.0 mm 0.00 in0.0 mm
05:00 PM 79.4°F26.3°C 79.1°F26.2°C 99% 1.2 mph W1.9 kmh W 1.2 mph1.9 kmh 29.37 in994.6 mb - 0.00 in0.0 mm 0.00 in0.0 mm
06:00 PM 77.5°F25.3°C 77.2°F25.1°C 99% Calm Calm -- 29.35 in993.9 mb - 0.00 in0.0 mm 0.00 in0.0 mm
07:00 PM 75.2°F24.0°C 74.9°F23.8°C 99% Calm Calm -- 29.34 in993.6 mb - 0.00 in0.0 mm 0.00 in0.0 mm
08:00 PM 72.3°F22.4°C 72.0°F22.2°C 99% Calm Calm -- 29.34 in993.6 mb - 0.00 in0.0 mm 0.00 in0.0 mm
09:00 PM 69.3°F20.7°C 69.0°F20.6°C 99% Calm Calm -- 29.34 in993.6 mb - 0.00 in0.0 mm 0.00 in0.0 mm
10:00 PM 67.3°F19.6°C 67.0°F19.4°C 99% Calm Calm -- 29.36 in994.2 mb - 0.00 in0.0 mm 0.00 in0.0 mm
11:00 PM 66.2°F19.0°C 65.9°F18.8°C 99% Calm Calm -- 29.37 in994.6 mb - 0.00 in0.0 mm 0.00 in0.0 mm